createdAt,value
2022-07-29T00:01:05.756Z,3.90
2022-07-29T00:06:11.888Z,3.30
2022-07-29T00:11:17.806Z,3.30
2022-07-29T00:16:24.099Z,3.40
2022-07-29T00:21:30.579Z,3.60
2022-07-29T00:26:36.553Z,3.60
2022-07-29T00:31:42.688Z,3.90
2022-07-29T00:36:48.776Z,3.80
2022-07-29T00:41:54.748Z,3.30
2022-07-29T00:47:00.708Z,3.10
2022-07-29T00:52:08.773Z,3.30
2022-07-29T00:57:15.570Z,3.40
2022-07-29T01:02:21.610Z,3.60
2022-07-29T01:07:28.965Z,3.20
2022-07-29T01:12:36.680Z,3.20
2022-07-29T01:17:53.534Z,2.70
2022-07-29T01:23:23.664Z,3.00
2022-07-29T01:29:08.437Z,3.30
2022-07-29T01:34:25.992Z,2.70
2022-07-29T01:39:36.029Z,2.50
2022-07-29T01:44:47.381Z,3.00
2022-07-29T01:49:56.252Z,3.20
2022-07-29T01:55:07.535Z,2.70
2022-07-29T02:00:16.194Z,2.90
2022-07-29T02:05:24.688Z,2.60
2022-07-29T02:10:33.690Z,3.00
2022-07-29T02:15:42.792Z,2.80
2022-07-29T02:20:53.942Z,2.20
2022-07-29T02:26:00.803Z,3.00
2022-07-29T02:31:07.733Z,2.90
2022-07-29T02:36:14.725Z,3.10
2022-07-29T02:41:24.272Z,2.80
2022-07-29T02:46:33.922Z,3.10
2022-07-29T02:51:45.077Z,3.00
2022-07-29T02:56:54.662Z,4.50
2022-07-29T03:02:03.136Z,2.70
2022-07-29T03:07:10.088Z,2.80
2022-07-29T03:12:17.115Z,3.20
2022-07-29T03:17:24.271Z,2.50
2022-07-29T03:22:31.630Z,2.50
2022-07-29T03:27:37.673Z,2.40
2022-07-29T03:32:44.435Z,2.90
2022-07-29T03:37:50.933Z,2.50
2022-07-29T03:42:59.054Z,2.30
2022-07-29T03:48:09.445Z,2.30
2022-07-29T03:53:15.850Z,2.50
2022-07-29T03:58:22.261Z,1.90
2022-07-29T04:03:28.419Z,2.30
2022-07-29T04:08:34.467Z,1.90
2022-07-29T04:13:40.683Z,2.30
2022-07-29T04:18:46.562Z,2.00
2022-07-29T04:23:53.938Z,1.90
2022-07-29T04:29:00.043Z,1.90
2022-07-29T04:34:06.301Z,1.80
2022-07-29T04:39:12.411Z,1.70
2022-07-29T04:44:19.638Z,1.40
2022-07-29T04:49:26.052Z,1.70
2022-07-29T04:54:31.929Z,1.10
2022-07-29T04:59:37.925Z,1.50
2022-07-29T05:04:43.985Z,1.00
2022-07-29T05:09:50.051Z,1.00
2022-07-29T05:14:56.153Z,1.00
2022-07-29T05:20:02.120Z,1.20
2022-07-29T05:25:10.556Z,0.80
2022-07-29T05:30:16.708Z,1.00
2022-07-29T05:35:22.765Z,1.20
2022-07-29T05:40:28.643Z,1.00
2022-07-29T05:45:34.841Z,0.50
2022-07-29T05:50:55.793Z,0.70
2022-07-29T05:56:06.445Z,0.70
2022-07-29T06:01:12.357Z,0.60
2022-07-29T06:06:18.714Z,0.60
2022-07-29T06:11:24.661Z,0.80
2022-07-29T06:16:30.876Z,0.70
2022-07-29T06:21:38.660Z,0.50
2022-07-29T06:26:48.279Z,0.40
2022-07-29T06:31:54.203Z,0.30
2022-07-29T06:37:00.017Z,0.50
2022-07-29T06:42:06.658Z,0.30
2022-07-29T06:47:13.228Z,0.40
2022-07-29T06:52:19.655Z,0.50
2022-07-29T06:57:25.633Z,0.50
2022-07-29T07:02:31.657Z,0.40
2022-07-29T07:07:40.391Z,0.50
2022-07-29T07:12:46.268Z,0.60
2022-07-29T07:17:52.203Z,0.40
2022-07-29T07:22:58.094Z,0.50
2022-07-29T07:28:04.279Z,0.50
2022-07-29T07:33:10.310Z,0.60
2022-07-29T07:43:20.685Z,0.70
2022-07-29T07:53:31.529Z,0.50
2022-07-29T07:58:39.545Z,0.60
2022-07-29T08:03:45.842Z,0.40
2022-07-29T08:08:52.068Z,0.50
2022-07-29T08:13:58.339Z,0.60
2022-07-29T08:19:04.202Z,0.60
2022-07-29T08:24:28.974Z,0.60
2022-07-29T08:29:35.081Z,0.80
2022-07-29T08:34:47.277Z,0.40
2022-07-29T08:39:53.280Z,0.50
2022-07-29T08:44:59.746Z,0.50
2022-07-29T08:50:06.683Z,0.60
2022-07-29T08:55:13.790Z,0.60
2022-07-29T09:00:22.358Z,0.60
2022-07-29T09:10:34.036Z,0.80
2022-07-29T09:15:40.143Z,0.60
2022-07-29T09:21:13.715Z,0.50
2022-07-29T09:26:19.578Z,0.70
2022-07-29T09:31:33.661Z,0.50
2022-07-29T09:36:44.614Z,0.60
2022-07-29T09:41:55.624Z,0.60
2022-07-29T09:47:09.550Z,0.60
2022-07-29T09:52:15.522Z,0.50
2022-07-29T09:57:31.220Z,0.80
2022-07-29T10:02:39.793Z,0.50
2022-07-29T10:07:53.623Z,0.40
2022-07-29T10:13:06.441Z,0.50
2022-07-29T10:18:17.512Z,0.50
2022-07-29T10:23:23.635Z,0.40
2022-07-29T10:28:30.733Z,0.80
2022-07-29T10:33:56.393Z,0.70
2022-07-29T10:39:15.508Z,0.50
2022-07-29T10:49:31.097Z,0.40
2022-07-29T10:54:44.066Z,0.70
2022-07-29T10:59:52.945Z,0.60
2022-07-29T11:05:07.277Z,0.40
2022-07-29T11:10:31.117Z,0.50
2022-07-29T11:15:58.279Z,0.50
2022-07-29T11:21:04.353Z,0.70
2022-07-29T11:26:26.110Z,0.50
2022-07-29T11:31:39.165Z,0.60
2022-07-29T11:37:18.429Z,0.50
2022-07-29T11:42:53.260Z,0.60
2022-07-29T11:48:27.731Z,0.60
2022-07-29T11:53:29.142Z,0.50
2022-07-29T11:58:40.110Z,0.50
2022-07-29T12:03:46.918Z,0.50
2022-07-29T12:08:57.080Z,0.40
2022-07-29T12:14:03.893Z,0.80
2022-07-29T12:19:10.028Z,0.70
2022-07-29T12:24:16.846Z,0.60
2022-07-29T12:29:34.459Z,0.40
2022-07-29T12:34:41.965Z,0.60
2022-07-29T12:39:48.204Z,0.50
2022-07-29T12:44:54.010Z,0.40
2022-07-29T12:50:13.114Z,0.70
2022-07-29T12:55:39.092Z,0.60
2022-07-29T13:00:45.891Z,0.60
2022-07-29T13:05:53.767Z,0.60
2022-07-29T13:10:59.816Z,0.60
2022-07-29T13:16:10.167Z,0.50
2022-07-29T13:21:18.958Z,0.50
2022-07-29T13:26:25.105Z,0.60
2022-07-29T13:31:31.409Z,0.50
2022-07-29T13:36:41.505Z,0.60
2022-07-29T13:41:47.892Z,0.50
2022-07-29T13:46:55.161Z,0.50
2022-07-29T13:52:01.357Z,0.40
2022-07-29T13:57:08.282Z,0.70
2022-07-29T14:02:15.597Z,0.70
2022-07-29T14:07:21.849Z,0.50
2022-07-29T14:12:27.930Z,0.70
2022-07-29T14:17:34.000Z,0.50
2022-07-29T14:22:42.624Z,0.60
2022-07-29T14:27:51.493Z,0.70
2022-07-29T14:32:57.481Z,0.70
2022-07-29T14:38:03.362Z,0.70
2022-07-29T14:43:09.170Z,0.80
2022-07-29T14:48:15.476Z,0.90
2022-07-29T14:53:21.454Z,1.10
2022-07-29T14:58:27.369Z,0.60
2022-07-29T15:03:33.907Z,0.70
2022-07-29T15:08:39.800Z,0.70
2022-07-29T15:13:45.707Z,0.60
2022-07-29T15:18:51.904Z,0.50
2022-07-29T15:23:58.126Z,0.70
2022-07-29T15:29:04.173Z,0.80
2022-07-29T15:34:10.062Z,0.70
2022-07-29T15:39:16.645Z,0.60
2022-07-29T15:44:22.857Z,0.80
2022-07-29T15:49:47.689Z,0.60
2022-07-29T15:54:56.799Z,0.60
2022-07-29T16:00:03.204Z,0.70
2022-07-29T16:05:14.044Z,3.50
2022-07-29T16:10:20.062Z,1.60
2022-07-29T16:15:26.022Z,0.90
2022-07-29T16:20:31.982Z,0.80
2022-07-29T16:25:59.246Z,1.00
2022-07-29T16:31:06.016Z,0.80
2022-07-29T16:36:13.182Z,0.80
2022-07-29T16:41:19.462Z,0.90
2022-07-29T16:46:25.871Z,0.50
2022-07-29T16:51:32.134Z,0.80
2022-07-29T16:56:38.512Z,0.70
2022-07-29T17:01:46.504Z,0.70
2022-07-29T17:06:52.770Z,0.80
2022-07-29T17:11:58.610Z,0.90
2022-07-29T17:17:12.271Z,1.00
2022-07-29T17:22:20.119Z,1.20
2022-07-29T17:27:26.093Z,1.10
2022-07-29T17:32:36.380Z,0.80
2022-07-29T17:37:42.305Z,1.10
2022-07-29T17:42:48.273Z,1.10
2022-07-29T17:47:54.146Z,1.10
2022-07-29T17:52:59.899Z,1.10
2022-07-29T17:58:05.737Z,0.80
2022-07-29T18:03:12.386Z,1.00
2022-07-29T18:08:18.478Z,1.40
2022-07-29T18:13:24.713Z,1.30
2022-07-29T18:18:30.553Z,1.60
2022-07-29T18:23:36.392Z,1.70
2022-07-29T18:28:42.556Z,1.40
2022-07-29T18:33:48.818Z,1.80
2022-07-29T18:38:54.766Z,1.90
2022-07-29T18:44:00.960Z,1.20
2022-07-29T18:49:07.412Z,1.50
2022-07-29T18:54:13.360Z,1.40
2022-07-29T18:59:21.414Z,1.00
2022-07-29T19:04:27.697Z,1.20
2022-07-29T19:09:34.783Z,1.10
2022-07-29T19:14:49.700Z,1.40
2022-07-29T19:19:55.889Z,1.50
2022-07-29T19:25:01.914Z,1.20
2022-07-29T19:30:09.859Z,1.30
2022-07-29T19:35:25.243Z,1.50
2022-07-29T19:40:31.706Z,1.80
2022-07-29T19:45:38.205Z,1.70
2022-07-29T19:50:45.051Z,1.70
2022-07-29T19:55:51.263Z,1.50
2022-07-29T20:00:57.106Z,1.50
2022-07-29T20:06:02.978Z,1.70
2022-07-29T20:11:09.173Z,1.60
2022-07-29T20:16:15.311Z,1.60
2022-07-29T20:21:23.139Z,1.50
2022-07-29T20:26:29.568Z,1.50
2022-07-29T20:31:36.280Z,1.70
2022-07-29T20:36:42.406Z,1.70
2022-07-29T20:41:52.695Z,1.80
2022-07-29T20:46:59.149Z,1.40
2022-07-29T20:52:06.053Z,1.50
2022-07-29T20:57:11.954Z,2.10
2022-07-29T21:02:17.831Z,1.80
2022-07-29T21:07:23.814Z,1.60
2022-07-29T21:12:30.379Z,2.50
2022-07-29T21:17:38.877Z,1.70
2022-07-29T21:22:44.968Z,1.60
2022-07-29T21:28:10.342Z,1.80
2022-07-29T21:33:16.500Z,1.60
2022-07-29T21:38:22.617Z,1.60
2022-07-29T21:43:28.938Z,1.30
2022-07-29T21:48:35.013Z,1.60
2022-07-29T21:53:42.441Z,1.60
2022-07-29T21:58:49.958Z,1.30
2022-07-29T22:03:56.038Z,1.40
2022-07-29T22:09:01.902Z,1.50
2022-07-29T22:14:08.094Z,1.50
2022-07-29T22:19:14.493Z,1.40
2022-07-29T22:24:20.668Z,1.60
2022-07-29T22:29:27.371Z,1.40
2022-07-29T22:34:37.800Z,1.60
2022-07-29T22:39:44.050Z,1.50
2022-07-29T22:44:50.357Z,1.60
2022-07-29T22:49:56.721Z,1.40
2022-07-29T22:55:02.508Z,1.40
2022-07-29T23:00:10.796Z,1.30
2022-07-29T23:05:17.121Z,1.10
2022-07-29T23:10:23.370Z,1.20
2022-07-29T23:15:29.304Z,1.40
2022-07-29T23:20:35.725Z,1.30
2022-07-29T23:25:41.605Z,2.20
2022-07-29T23:30:47.530Z,1.80
2022-07-29T23:35:53.557Z,1.40
2022-07-29T23:41:01.576Z,1.30
2022-07-29T23:46:07.593Z,1.60
2022-07-29T23:51:14.573Z,1.80
2022-07-29T23:56:20.680Z,1.50
